sensor_id;sensor_type;location;lat;lon;timestamp;P1;durP1;ratioP1;P2;durP2;ratioP2
5787;SDS011;2920;48.158;12.254;2023-06-10T00:01:18;7.10;;;4.70;;
5787;SDS011;2920;48.158;12.254;2023-06-10T00:03:43;5.78;;;4.68;;
5787;SDS011;2920;48.158;12.254;2023-06-10T00:06:09;5.93;;;4.28;;
5787;SDS011;2920;48.158;12.254;2023-06-10T00:08:34;5.03;;;3.97;;
5787;SDS011;2920;48.158;12.254;2023-06-10T00:10:59;5.53;;;4.28;;
5787;SDS011;2920;48.158;12.254;2023-06-10T00:13:25;5.93;;;4.07;;
5787;SDS011;2920;48.158;12.254;2023-06-10T00:15:50;8.48;;;4.63;;
5787;SDS011;2920;48.158;12.254;2023-06-10T00:18:16;5.90;;;4.53;;
5787;SDS011;2920;48.158;12.254;2023-06-10T00:20:42;8.98;;;4.70;;
5787;SDS011;2920;48.158;12.254;2023-06-10T00:23:07;7.25;;;4.30;;
5787;SDS011;2920;48.158;12.254;2023-06-10T00:25:33;8.90;;;4.85;;
5787;SDS011;2920;48.158;12.254;2023-06-10T00:27:59;7.53;;;4.53;;
5787;SDS011;2920;48.158;12.254;2023-06-10T00:30:24;8.65;;;5.13;;
5787;SDS011;2920;48.158;12.254;2023-06-10T00:32:49;6.38;;;4.53;;
5787;SDS011;2920;48.158;12.254;2023-06-10T00:35:15;7.07;;;5.35;;
5787;SDS011;2920;48.158;12.254;2023-06-10T00:37:40;7.45;;;4.95;;
5787;SDS011;2920;48.158;12.254;2023-06-10T00:40:07;6.25;;;5.20;;
5787;SDS011;2920;48.158;12.254;2023-06-10T00:42:34;6.70;;;5.00;;
5787;SDS011;2920;48.158;12.254;2023-06-10T00:44:59;5.75;;;4.63;;
5787;SDS011;2920;48.158;12.254;2023-06-10T00:47:25;6.32;;;4.78;;
5787;SDS011;2920;48.158;12.254;2023-06-10T00:49:50;6.90;;;4.60;;
5787;SDS011;2920;48.158;12.254;2023-06-10T00:52:16;7.32;;;5.30;;
5787;SDS011;2920;48.158;12.254;2023-06-10T00:54:42;7.35;;;5.10;;
5787;SDS011;2920;48.158;12.254;2023-06-10T00:57:07;5.95;;;4.68;;
5787;SDS011;2920;48.158;12.254;2023-06-10T00:59:32;6.93;;;5.55;;
5787;SDS011;2920;48.158;12.254;2023-06-10T01:01:58;8.98;;;5.60;;
5787;SDS011;2920;48.158;12.254;2023-06-10T01:04:24;9.93;;;5.95;;
5787;SDS011;2920;48.158;12.254;2023-06-10T01:06:54;7.28;;;5.30;;
5787;SDS011;2920;48.158;12.254;2023-06-10T01:09:33;8.48;;;5.60;;
5787;SDS011;2920;48.158;12.254;2023-06-10T01:12:10;8.25;;;5.50;;
5787;SDS011;2920;48.158;12.254;2023-06-10T01:14:38;8.95;;;5.78;;
5787;SDS011;2920;48.158;12.254;2023-06-10T01:17:09;7.72;;;5.45;;
5787;SDS011;2920;48.158;12.254;2023-06-10T01:19:35;9.25;;;5.93;;
5787;SDS011;2920;48.158;12.254;2023-06-10T01:22:01;10.93;;;6.07;;
5787;SDS011;2920;48.158;12.254;2023-06-10T01:24:27;9.98;;;5.57;;
5787;SDS011;2920;48.158;12.254;2023-06-10T01:26:53;9.65;;;6.82;;
5787;SDS011;2920;48.158;12.254;2023-06-10T01:32:43;17.42;;;7.13;;
5787;SDS011;2920;48.158;12.254;2023-06-10T01:35:01;8.57;;;6.13;;
5787;SDS011;2920;48.158;12.254;2023-06-10T01:37:27;9.15;;;6.47;;
5787;SDS011;2920;48.158;12.254;2023-06-10T01:39:55;8.68;;;6.07;;
5787;SDS011;2920;48.158;12.254;2023-06-10T01:42:23;11.70;;;7.10;;
5787;SDS011;2920;48.158;12.254;2023-06-10T01:44:48;8.48;;;6.18;;
5787;SDS011;2920;48.158;12.254;2023-06-10T01:47:13;10.23;;;7.38;;
5787;SDS011;2920;48.158;12.254;2023-06-10T01:49:39;8.88;;;6.30;;
5787;SDS011;2920;48.158;12.254;2023-06-10T01:52:04;10.15;;;7.40;;
5787;SDS011;2920;48.158;12.254;2023-06-10T01:54:30;12.85;;;8.18;;
5787;SDS011;2920;48.158;12.254;2023-06-10T01:56:56;11.85;;;8.18;;
5787;SDS011;2920;48.158;12.254;2023-06-10T01:59:21;12.07;;;7.68;;
5787;SDS011;2920;48.158;12.254;2023-06-10T02:01:46;9.60;;;7.57;;
5787;SDS011;2920;48.158;12.254;2023-06-10T02:04:12;11.38;;;7.75;;
5787;SDS011;2920;48.158;12.254;2023-06-10T02:06:37;12.82;;;7.22;;
5787;SDS011;2920;48.158;12.254;2023-06-10T02:09:02;10.02;;;6.97;;
5787;SDS011;2920;48.158;12.254;2023-06-10T02:11:28;10.70;;;7.30;;
5787;SDS011;2920;48.158;12.254;2023-06-10T02:13:53;9.73;;;7.18;;
5787;SDS011;2920;48.158;12.254;2023-06-10T02:16:19;10.30;;;6.90;;
5787;SDS011;2920;48.158;12.254;2023-06-10T02:18:46;9.63;;;7.45;;
5787;SDS011;2920;48.158;12.254;2023-06-10T02:21:12;9.85;;;7.20;;
5787;SDS011;2920;48.158;12.254;2023-06-10T02:23:37;10.73;;;7.20;;
5787;SDS011;2920;48.158;12.254;2023-06-10T02:26:02;10.85;;;7.18;;
5787;SDS011;2920;48.158;12.254;2023-06-10T02:28:28;11.15;;;6.97;;
5787;SDS011;2920;48.158;12.254;2023-06-10T02:30:53;10.27;;;6.75;;
5787;SDS011;2920;48.158;12.254;2023-06-10T02:33:18;9.27;;;6.53;;
5787;SDS011;2920;48.158;12.254;2023-06-10T02:35:44;8.60;;;5.95;;
5787;SDS011;2920;48.158;12.254;2023-06-10T02:38:10;9.90;;;6.53;;
5787;SDS011;2920;48.158;12.254;2023-06-10T02:40:35;8.45;;;6.32;;
5787;SDS011;2920;48.158;12.254;2023-06-10T02:43:01;9.23;;;6.63;;
5787;SDS011;2920;48.158;12.254;2023-06-10T02:45:26;8.93;;;6.63;;
5787;SDS011;2920;48.158;12.254;2023-06-10T02:47:51;9.05;;;6.18;;
5787;SDS011;2920;48.158;12.254;2023-06-10T02:50:17;12.18;;;7.32;;
5787;SDS011;2920;48.158;12.254;2023-06-10T02:52:43;8.75;;;6.28;;
5787;SDS011;2920;48.158;12.254;2023-06-10T02:55:08;9.02;;;6.38;;
5787;SDS011;2920;48.158;12.254;2023-06-10T02:57:33;10.13;;;6.80;;
5787;SDS011;2920;48.158;12.254;2023-06-10T02:59:59;9.43;;;6.40;;
5787;SDS011;2920;48.158;12.254;2023-06-10T03:02:24;9.23;;;6.32;;
5787;SDS011;2920;48.158;12.254;2023-06-10T03:04:54;10.00;;;6.88;;
5787;SDS011;2920;48.158;12.254;2023-06-10T03:09:48;9.10;;;6.70;;
5787;SDS011;2920;48.158;12.254;2023-06-10T03:12:13;9.65;;;6.75;;
5787;SDS011;2920;48.158;12.254;2023-06-10T03:14:39;11.52;;;7.53;;
5787;SDS011;2920;48.158;12.254;2023-06-10T03:17:04;9.80;;;6.28;;
5787;SDS011;2920;48.158;12.254;2023-06-10T03:19:31;9.75;;;6.38;;
5787;SDS011;2920;48.158;12.254;2023-06-10T03:22:06;9.50;;;6.80;;
5787;SDS011;2920;48.158;12.254;2023-06-10T03:24:35;12.05;;;7.10;;
5787;SDS011;2920;48.158;12.254;2023-06-10T03:27:01;10.35;;;6.82;;
5787;SDS011;2920;48.158;12.254;2023-06-10T03:29:29;9.80;;;6.55;;
5787;SDS011;2920;48.158;12.254;2023-06-10T03:31:55;9.93;;;7.30;;
5787;SDS011;2920;48.158;12.254;2023-06-10T03:34:20;8.63;;;6.13;;
5787;SDS011;2920;48.158;12.254;2023-06-10T03:36:46;8.80;;;6.72;;
5787;SDS011;2920;48.158;12.254;2023-06-10T03:39:11;8.65;;;6.30;;
5787;SDS011;2920;48.158;12.254;2023-06-10T03:41:36;7.63;;;6.00;;
5787;SDS011;2920;48.158;12.254;2023-06-10T03:44:02;8.35;;;5.95;;
5787;SDS011;2920;48.158;12.254;2023-06-10T03:46:28;10.90;;;6.70;;
5787;SDS011;2920;48.158;12.254;2023-06-10T03:48:54;10.20;;;6.85;;
5787;SDS011;2920;48.158;12.254;2023-06-10T03:51:19;8.93;;;6.50;;
5787;SDS011;2920;48.158;12.254;2023-06-10T03:53:44;8.13;;;6.10;;
5787;SDS011;2920;48.158;12.254;2023-06-10T03:56:10;9.13;;;5.97;;
5787;SDS011;2920;48.158;12.254;2023-06-10T03:58:35;8.80;;;6.57;;
5787;SDS011;2920;48.158;12.254;2023-06-10T04:01:00;14.35;;;7.43;;
5787;SDS011;2920;48.158;12.254;2023-06-10T04:03:26;9.23;;;6.25;;
5787;SDS011;2920;48.158;12.254;2023-06-10T04:05:51;7.82;;;5.90;;
5787;SDS011;2920;48.158;12.254;2023-06-10T04:08:17;7.18;;;5.80;;
5787;SDS011;2920;48.158;12.254;2023-06-10T04:10:42;9.50;;;6.40;;
5787;SDS011;2920;48.158;12.254;2023-06-10T04:13:07;9.27;;;6.45;;
5787;SDS011;2920;48.158;12.254;2023-06-10T04:15:33;12.05;;;7.15;;
5787;SDS011;2920;48.158;12.254;2023-06-10T04:17:59;8.00;;;6.10;;
5787;SDS011;2920;48.158;12.254;2023-06-10T04:20:26;8.93;;;6.15;;
5787;SDS011;2920;48.158;12.254;2023-06-10T04:22:51;8.15;;;6.03;;
5787;SDS011;2920;48.158;12.254;2023-06-10T04:25:16;10.43;;;6.38;;
5787;SDS011;2920;48.158;12.254;2023-06-10T04:27:42;9.88;;;6.45;;
5787;SDS011;2920;48.158;12.254;2023-06-10T04:30:08;9.63;;;6.40;;
5787;SDS011;2920;48.158;12.254;2023-06-10T04:32:34;9.90;;;7.22;;
5787;SDS011;2920;48.158;12.254;2023-06-10T04:34:59;9.48;;;6.82;;
5787;SDS011;2920;48.158;12.254;2023-06-10T04:37:25;9.52;;;6.53;;
5787;SDS011;2920;48.158;12.254;2023-06-10T04:39:50;8.32;;;6.78;;
5787;SDS011;2920;48.158;12.254;2023-06-10T04:42:15;8.73;;;6.22;;
5787;SDS011;2920;48.158;12.254;2023-06-10T04:44:41;10.32;;;7.00;;
5787;SDS011;2920;48.158;12.254;2023-06-10T04:47:06;10.55;;;6.95;;
5787;SDS011;2920;48.158;12.254;2023-06-10T04:49:32;11.18;;;7.47;;
5787;SDS011;2920;48.158;12.254;2023-06-10T04:51:58;10.68;;;7.15;;
5787;SDS011;2920;48.158;12.254;2023-06-10T04:54:25;13.32;;;7.68;;
5787;SDS011;2920;48.158;12.254;2023-06-10T04:56:50;13.25;;;8.00;;
5787;SDS011;2920;48.158;12.254;2023-06-10T04:59:16;9.25;;;7.10;;
5787;SDS011;2920;48.158;12.254;2023-06-10T05:01:41;8.77;;;5.85;;
5787;SDS011;2920;48.158;12.254;2023-06-10T05:04:06;12.07;;;8.70;;
5787;SDS011;2920;48.158;12.254;2023-06-10T05:06:32;12.60;;;8.90;;
5787;SDS011;2920;48.158;12.254;2023-06-10T05:08:57;13.13;;;8.82;;
5787;SDS011;2920;48.158;12.254;2023-06-10T05:11:22;10.15;;;7.40;;
5787;SDS011;2920;48.158;12.254;2023-06-10T05:13:48;13.23;;;8.55;;
5787;SDS011;2920;48.158;12.254;2023-06-10T05:16:13;9.02;;;7.13;;
5787;SDS011;2920;48.158;12.254;2023-06-10T05:18:40;12.38;;;8.05;;
5787;SDS011;2920;48.158;12.254;2023-06-10T05:21:05;19.95;;;8.40;;
5787;SDS011;2920;48.158;12.254;2023-06-10T05:23:31;16.42;;;8.60;;
5787;SDS011;2920;48.158;12.254;2023-06-10T05:25:56;13.88;;;8.40;;
5787;SDS011;2920;48.158;12.254;2023-06-10T05:28:22;11.52;;;7.78;;
5787;SDS011;2920;48.158;12.254;2023-06-10T05:30:47;15.00;;;8.82;;
5787;SDS011;2920;48.158;12.254;2023-06-10T05:33:12;11.63;;;7.10;;
5787;SDS011;2920;48.158;12.254;2023-06-10T05:35:37;10.35;;;6.78;;
5787;SDS011;2920;48.158;12.254;2023-06-10T05:38:03;11.48;;;7.90;;
5787;SDS011;2920;48.158;12.254;2023-06-10T05:40:28;9.88;;;7.20;;
5787;SDS011;2920;48.158;12.254;2023-06-10T05:42:54;11.93;;;6.65;;
5787;SDS011;2920;48.158;12.254;2023-06-10T05:45:19;9.68;;;6.82;;
5787;SDS011;2920;48.158;12.254;2023-06-10T05:47:44;10.82;;;6.63;;
5787;SDS011;2920;48.158;12.254;2023-06-10T05:50:10;13.90;;;7.50;;
5787;SDS011;2920;48.158;12.254;2023-06-10T05:52:35;9.07;;;6.85;;
5787;SDS011;2920;48.158;12.254;2023-06-10T05:55:04;8.45;;;6.05;;
5787;SDS011;2920;48.158;12.254;2023-06-10T05:57:29;11.83;;;6.57;;
5787;SDS011;2920;48.158;12.254;2023-06-10T05:59:55;18.83;;;7.45;;
5787;SDS011;2920;48.158;12.254;2023-06-10T06:02:20;11.85;;;6.90;;
5787;SDS011;2920;48.158;12.254;2023-06-10T06:04:45;9.82;;;7.15;;
5787;SDS011;2920;48.158;12.254;2023-06-10T06:07:11;9.05;;;6.45;;
5787;SDS011;2920;48.158;12.254;2023-06-10T06:09:36;9.30;;;6.53;;
5787;SDS011;2920;48.158;12.254;2023-06-10T06:12:02;8.77;;;6.72;;
5787;SDS011;2920;48.158;12.254;2023-06-10T06:14:30;9.00;;;6.93;;
5787;SDS011;2920;48.158;12.254;2023-06-10T06:16:56;12.03;;;7.67;;
5787;SDS011;2920;48.158;12.254;2023-06-10T06:19:21;48.83;;;9.63;;
5787;SDS011;2920;48.158;12.254;2023-06-10T06:21:46;11.07;;;7.00;;
5787;SDS011;2920;48.158;12.254;2023-06-10T06:24:12;10.63;;;7.30;;
5787;SDS011;2920;48.158;12.254;2023-06-10T06:26:37;10.98;;;7.55;;
5787;SDS011;2920;48.158;12.254;2023-06-10T06:29:02;10.00;;;6.63;;
5787;SDS011;2920;48.158;12.254;2023-06-10T06:31:27;9.20;;;6.45;;
5787;SDS011;2920;48.158;12.254;2023-06-10T06:33:53;10.25;;;7.07;;
5787;SDS011;2920;48.158;12.254;2023-06-10T06:36:18;10.05;;;7.22;;
5787;SDS011;2920;48.158;12.254;2023-06-10T06:38:44;8.95;;;6.70;;
5787;SDS011;2920;48.158;12.254;2023-06-10T06:41:09;8.85;;;5.97;;
5787;SDS011;2920;48.158;12.254;2023-06-10T06:43:34;9.15;;;6.68;;
5787;SDS011;2920;48.158;12.254;2023-06-10T06:45:59;9.73;;;7.53;;
5787;SDS011;2920;48.158;12.254;2023-06-10T06:48:25;7.72;;;6.15;;
5787;SDS011;2920;48.158;12.254;2023-06-10T06:50:50;9.32;;;5.88;;
5787;SDS011;2920;48.158;12.254;2023-06-10T06:53:16;8.68;;;6.43;;
5787;SDS011;2920;48.158;12.254;2023-06-10T06:55:41;8.10;;;6.10;;
5787;SDS011;2920;48.158;12.254;2023-06-10T06:58:06;8.95;;;6.25;;
5787;SDS011;2920;48.158;12.254;2023-06-10T07:00:31;8.13;;;5.78;;
5787;SDS011;2920;48.158;12.254;2023-06-10T07:02:57;63.67;;;10.43;;
5787;SDS011;2920;48.158;12.254;2023-06-10T07:05:23;8.48;;;6.07;;
5787;SDS011;2920;48.158;12.254;2023-06-10T07:07:51;6.50;;;5.03;;
5787;SDS011;2920;48.158;12.254;2023-06-10T07:10:20;8.65;;;6.10;;
5787;SDS011;2920;48.158;12.254;2023-06-10T07:12:48;7.38;;;5.70;;
5787;SDS011;2920;48.158;12.254;2023-06-10T07:15:14;10.93;;;5.70;;
5787;SDS011;2920;48.158;12.254;2023-06-10T07:17:39;12.15;;;5.35;;
5787;SDS011;2920;48.158;12.254;2023-06-10T07:20:05;9.45;;;5.75;;
5787;SDS011;2920;48.158;12.254;2023-06-10T07:22:30;7.05;;;5.57;;
5787;SDS011;2920;48.158;12.254;2023-06-10T07:24:55;8.20;;;5.95;;
5787;SDS011;2920;48.158;12.254;2023-06-10T07:27:21;7.15;;;5.18;;
5787;SDS011;2920;48.158;12.254;2023-06-10T07:29:46;6.18;;;5.00;;
5787;SDS011;2920;48.158;12.254;2023-06-10T07:32:11;8.88;;;5.00;;
5787;SDS011;2920;48.158;12.254;2023-06-10T07:34:37;7.10;;;4.65;;
5787;SDS011;2920;48.158;12.254;2023-06-10T07:37:02;9.20;;;5.15;;
5787;SDS011;2920;48.158;12.254;2023-06-10T07:39:28;7.82;;;6.07;;
5787;SDS011;2920;48.158;12.254;2023-06-10T07:41:53;8.73;;;5.90;;
5787;SDS011;2920;48.158;12.254;2023-06-10T07:44:19;8.23;;;4.97;;
5787;SDS011;2920;48.158;12.254;2023-06-10T07:46:44;9.07;;;5.85;;
5787;SDS011;2920;48.158;12.254;2023-06-10T07:49:10;9.77;;;6.75;;
5787;SDS011;2920;48.158;12.254;2023-06-10T07:51:35;7.22;;;5.65;;
5787;SDS011;2920;48.158;12.254;2023-06-10T07:54:01;57.28;;;9.00;;
5787;SDS011;2920;48.158;12.254;2023-06-10T07:56:27;11.50;;;5.15;;
5787;SDS011;2920;48.158;12.254;2023-06-10T07:58:52;8.27;;;5.93;;
5787;SDS011;2920;48.158;12.254;2023-06-10T08:01:17;7.97;;;5.40;;
5787;SDS011;2920;48.158;12.254;2023-06-10T08:03:42;6.60;;;5.13;;
5787;SDS011;2920;48.158;12.254;2023-06-10T08:06:08;8.82;;;6.38;;
5787;SDS011;2920;48.158;12.254;2023-06-10T08:08:36;7.45;;;5.55;;
5787;SDS011;2920;48.158;12.254;2023-06-10T08:11:06;9.13;;;5.82;;
5787;SDS011;2920;48.158;12.254;2023-06-10T08:13:31;304.58;;;24.50;;
5787;SDS011;2920;48.158;12.254;2023-06-10T08:15:56;11.05;;;5.70;;
5787;SDS011;2920;48.158;12.254;2023-06-10T08:18:22;8.00;;;6.00;;
5787;SDS011;2920;48.158;12.254;2023-06-10T08:20:47;6.95;;;5.78;;
5787;SDS011;2920;48.158;12.254;2023-06-10T08:23:13;8.45;;;5.30;;
5787;SDS011;2920;48.158;12.254;2023-06-10T08:25:39;5.68;;;4.32;;
5787;SDS011;2920;48.158;12.254;2023-06-10T08:28:04;6.72;;;4.97;;
5787;SDS011;2920;48.158;12.254;2023-06-10T08:30:29;5.88;;;5.15;;
5787;SDS011;2920;48.158;12.254;2023-06-10T08:32:55;6.35;;;5.05;;
5787;SDS011;2920;48.158;12.254;2023-06-10T08:35:20;10.57;;;4.93;;
5787;SDS011;2920;48.158;12.254;2023-06-10T08:37:46;8.52;;;5.22;;
5787;SDS011;2920;48.158;12.254;2023-06-10T08:40:11;7.93;;;4.75;;
5787;SDS011;2920;48.158;12.254;2023-06-10T08:42:45;8.55;;;5.15;;
5787;SDS011;2920;48.158;12.254;2023-06-10T08:45:17;6.22;;;5.28;;
5787;SDS011;2920;48.158;12.254;2023-06-10T08:47:44;7.03;;;4.60;;
5787;SDS011;2920;48.158;12.254;2023-06-10T08:50:11;11.60;;;5.38;;
5787;SDS011;2920;48.158;12.254;2023-06-10T08:52:36;6.90;;;5.07;;
5787;SDS011;2920;48.158;12.254;2023-06-10T08:55:03;6.95;;;5.05;;
5787;SDS011;2920;48.158;12.254;2023-06-10T08:57:33;5.85;;;4.75;;
5787;SDS011;2920;48.158;12.254;2023-06-10T08:59:58;6.40;;;4.70;;
5787;SDS011;2920;48.158;12.254;2023-06-10T09:02:24;6.88;;;4.32;;
5787;SDS011;2920;48.158;12.254;2023-06-10T09:04:49;5.32;;;4.40;;
5787;SDS011;2920;48.158;12.254;2023-06-10T09:07:15;6.13;;;4.32;;
5787;SDS011;2920;48.158;12.254;2023-06-10T09:09:44;7.18;;;4.32;;
5787;SDS011;2920;48.158;12.254;2023-06-10T09:12:10;5.90;;;4.50;;
5787;SDS011;2920;48.158;12.254;2023-06-10T09:14:36;6.10;;;4.35;;
5787;SDS011;2920;48.158;12.254;2023-06-10T09:17:02;6.00;;;4.85;;
5787;SDS011;2920;48.158;12.254;2023-06-10T09:19:28;6.05;;;4.50;;
5787;SDS011;2920;48.158;12.254;2023-06-10T09:21:54;7.57;;;6.00;;
5787;SDS011;2920;48.158;12.254;2023-06-10T09:24:21;5.95;;;4.97;;
5787;SDS011;2920;48.158;12.254;2023-06-10T09:26:47;7.70;;;4.28;;
5787;SDS011;2920;48.158;12.254;2023-06-10T09:29:12;4.57;;;4.13;;
5787;SDS011;2920;48.158;12.254;2023-06-10T09:31:38;5.38;;;4.82;;
5787;SDS011;2920;48.158;12.254;2023-06-10T09:34:05;5.75;;;4.22;;
5787;SDS011;2920;48.158;12.254;2023-06-10T09:36:34;5.25;;;4.13;;
5787;SDS011;2920;48.158;12.254;2023-06-10T09:39:00;5.70;;;4.82;;
5787;SDS011;2920;48.158;12.254;2023-06-10T09:41:33;13.70;;;4.95;;
5787;SDS011;2920;48.158;12.254;2023-06-10T09:43:59;4.88;;;4.32;;
5787;SDS011;2920;48.158;12.254;2023-06-10T09:46:25;6.43;;;3.88;;
5787;SDS011;2920;48.158;12.254;2023-06-10T09:48:56;4.88;;;3.95;;
5787;SDS011;2920;48.158;12.254;2023-06-10T09:51:22;4.60;;;4.10;;
5787;SDS011;2920;48.158;12.254;2023-06-10T09:53:51;5.40;;;3.78;;
5787;SDS011;2920;48.158;12.254;2023-06-10T09:56:17;5.05;;;3.78;;
5787;SDS011;2920;48.158;12.254;2023-06-10T09:58:42;6.18;;;3.50;;
5787;SDS011;2920;48.158;12.254;2023-06-10T10:01:11;5.38;;;3.75;;
5787;SDS011;2920;48.158;12.254;2023-06-10T10:03:44;4.72;;;3.53;;
5787;SDS011;2920;48.158;12.254;2023-06-10T10:06:11;4.22;;;3.80;;
5787;SDS011;2920;48.158;12.254;2023-06-10T10:08:37;3.90;;;3.38;;
5787;SDS011;2920;48.158;12.254;2023-06-10T10:11:02;4.88;;;3.83;;
5787;SDS011;2920;48.158;12.254;2023-06-10T10:13:28;9.05;;;4.07;;
5787;SDS011;2920;48.158;12.254;2023-06-10T10:15:54;5.70;;;3.95;;
5787;SDS011;2920;48.158;12.254;2023-06-10T10:18:21;127.47;;;9.18;;
5787;SDS011;2920;48.158;12.254;2023-06-10T10:20:53;4.50;;;3.83;;
5787;SDS011;2920;48.158;12.254;2023-06-10T10:23:29;4.10;;;3.20;;
5787;SDS011;2920;48.158;12.254;2023-06-10T10:25:57;6.43;;;3.55;;
5787;SDS011;2920;48.158;12.254;2023-06-10T10:28:25;4.20;;;3.80;;
5787;SDS011;2920;48.158;12.254;2023-06-10T10:30:59;4.43;;;3.50;;
5787;SDS011;2920;48.158;12.254;2023-06-10T10:33:31;4.82;;;3.47;;
5787;SDS011;2920;48.158;12.254;2023-06-10T10:35:59;4.22;;;3.28;;
5787;SDS011;2920;48.158;12.254;2023-06-10T10:38:25;4.40;;;3.67;;
5787;SDS011;2920;48.158;12.254;2023-06-10T10:40:51;3.75;;;3.10;;
5787;SDS011;2920;48.158;12.254;2023-06-10T10:43:16;4.00;;;3.28;;
5787;SDS011;2920;48.158;12.254;2023-06-10T10:45:42;4.15;;;3.25;;
5787;SDS011;2920;48.158;12.254;2023-06-10T10:48:08;23.45;;;6.45;;
5787;SDS011;2920;48.158;12.254;2023-06-10T10:50:36;4.10;;;3.05;;
5787;SDS011;2920;48.158;12.254;2023-06-10T10:53:02;4.65;;;3.00;;
5787;SDS011;2920;48.158;12.254;2023-06-10T10:55:29;3.58;;;3.28;;
5787;SDS011;2920;48.158;12.254;2023-06-10T10:57:59;6.97;;;3.00;;
5787;SDS011;2920;48.158;12.254;2023-06-10T11:00:29;3.97;;;3.13;;
5787;SDS011;2920;48.158;12.254;2023-06-10T11:02:57;4.13;;;3.22;;
5787;SDS011;2920;48.158;12.254;2023-06-10T11:05:38;5.85;;;3.22;;
5787;SDS011;2920;48.158;12.254;2023-06-10T11:08:09;3.15;;;2.85;;
5787;SDS011;2920;48.158;12.254;2023-06-10T11:10:38;6.72;;;3.20;;
5787;SDS011;2920;48.158;12.254;2023-06-10T11:13:14;3.83;;;3.42;;
5787;SDS011;2920;48.158;12.254;2023-06-10T11:15:49;5.82;;;3.65;;
5787;SDS011;2920;48.158;12.254;2023-06-10T11:26:11;8.43;;;4.50;;
5787;SDS011;2920;48.158;12.254;2023-06-10T11:31:24;7.07;;;4.25;;
5787;SDS011;2920;48.158;12.254;2023-06-10T11:33:57;7.20;;;4.90;;
5787;SDS011;2920;48.158;12.254;2023-06-10T11:36:28;5.93;;;4.25;;
5787;SDS011;2920;48.158;12.254;2023-06-10T11:39:00;6.65;;;4.97;;
5787;SDS011;2920;48.158;12.254;2023-06-10T11:41:27;5.95;;;4.50;;
5787;SDS011;2920;48.158;12.254;2023-06-10T11:43:54;6.00;;;5.00;;
5787;SDS011;2920;48.158;12.254;2023-06-10T11:46:21;5.38;;;4.82;;
5787;SDS011;2920;48.158;12.254;2023-06-10T11:48:54;6.35;;;4.05;;
5787;SDS011;2920;48.158;12.254;2023-06-10T11:51:20;4.47;;;3.67;;
5787;SDS011;2920;48.158;12.254;2023-06-10T11:53:46;4.50;;;3.78;;
5787;SDS011;2920;48.158;12.254;2023-06-10T11:56:12;4.43;;;3.78;;
5787;SDS011;2920;48.158;12.254;2023-06-10T11:58:37;5.20;;;4.13;;
5787;SDS011;2920;48.158;12.254;2023-06-10T12:01:06;5.80;;;3.65;;
5787;SDS011;2920;48.158;12.254;2023-06-10T12:03:37;4.65;;;3.80;;
5787;SDS011;2920;48.158;12.254;2023-06-10T12:06:04;3.67;;;3.28;;
5787;SDS011;2920;48.158;12.254;2023-06-10T12:08:31;5.85;;;3.67;;
5787;SDS011;2920;48.158;12.254;2023-06-10T12:10:57;4.13;;;3.47;;
5787;SDS011;2920;48.158;12.254;2023-06-10T12:13:23;4.10;;;3.58;;
5787;SDS011;2920;48.158;12.254;2023-06-10T12:15:50;4.03;;;3.15;;
5787;SDS011;2920;48.158;12.254;2023-06-10T12:18:19;5.03;;;3.60;;
5787;SDS011;2920;48.158;12.254;2023-06-10T12:20:45;3.10;;;2.72;;
5787;SDS011;2920;48.158;12.254;2023-06-10T12:23:10;3.88;;;2.85;;
5787;SDS011;2920;48.158;12.254;2023-06-10T12:25:36;2.95;;;2.72;;
5787;SDS011;2920;48.158;12.254;2023-06-10T12:28:03;2.88;;;2.58;;
5787;SDS011;2920;48.158;12.254;2023-06-10T12:30:28;3.47;;;3.05;;
5787;SDS011;2920;48.158;12.254;2023-06-10T12:32:54;4.07;;;3.15;;
5787;SDS011;2920;48.158;12.254;2023-06-10T12:35:21;2.97;;;2.67;;
5787;SDS011;2920;48.158;12.254;2023-06-10T12:37:57;4.63;;;2.60;;
5787;SDS011;2920;48.158;12.254;2023-06-10T12:42:56;5.50;;;2.75;;
5787;SDS011;2920;48.158;12.254;2023-06-10T12:45:34;3.28;;;2.40;;
5787;SDS011;2920;48.158;12.254;2023-06-10T12:48:19;4.20;;;2.83;;
5787;SDS011;2920;48.158;12.254;2023-06-10T12:50:56;3.50;;;3.17;;
5787;SDS011;2920;48.158;12.254;2023-06-10T12:53:23;3.15;;;2.85;;
5787;SDS011;2920;48.158;12.254;2023-06-10T12:55:50;4.18;;;3.05;;
5787;SDS011;2920;48.158;12.254;2023-06-10T12:58:16;3.42;;;2.90;;
5787;SDS011;2920;48.158;12.254;2023-06-10T13:00:41;4.57;;;3.15;;
5787;SDS011;2920;48.158;12.254;2023-06-10T13:03:08;4.20;;;3.55;;
5787;SDS011;2920;48.158;12.254;2023-06-10T13:05:37;3.00;;;2.70;;
5787;SDS011;2920;48.158;12.254;2023-06-10T13:08:04;3.10;;;2.80;;
5787;SDS011;2920;48.158;12.254;2023-06-10T13:10:35;8.13;;;2.72;;
5787;SDS011;2920;48.158;12.254;2023-06-10T13:13:01;5.30;;;2.90;;
5787;SDS011;2920;48.158;12.254;2023-06-10T13:15:27;3.00;;;2.60;;
5787;SDS011;2920;48.158;12.254;2023-06-10T13:17:52;2.83;;;2.63;;
5787;SDS011;2920;48.158;12.254;2023-06-10T13:20:18;3.10;;;2.80;;
5787;SDS011;2920;48.158;12.254;2023-06-10T13:22:44;3.20;;;2.90;;
5787;SDS011;2920;48.158;12.254;2023-06-10T13:25:09;5.53;;;3.20;;
5787;SDS011;2920;48.158;12.254;2023-06-10T13:27:37;3.13;;;2.80;;
5787;SDS011;2920;48.158;12.254;2023-06-10T13:30:07;99.05;;;8.80;;
5787;SDS011;2920;48.158;12.254;2023-06-10T13:32:33;4.35;;;3.35;;
5787;SDS011;2920;48.158;12.254;2023-06-10T13:34:59;5.38;;;3.75;;
5787;SDS011;2920;48.158;12.254;2023-06-10T13:37:24;3.58;;;3.28;;
5787;SDS011;2920;48.158;12.254;2023-06-10T13:39:50;6.05;;;3.92;;
5787;SDS011;2920;48.158;12.254;2023-06-10T13:42:19;4.18;;;3.78;;
5787;SDS011;2920;48.158;12.254;2023-06-10T13:44:45;3.67;;;3.38;;
5787;SDS011;2920;48.158;12.254;2023-06-10T13:47:12;4.35;;;3.95;;
5787;SDS011;2920;48.158;12.254;2023-06-10T13:49:37;4.53;;;3.33;;
5787;SDS011;2920;48.158;12.254;2023-06-10T13:52:03;4.88;;;4.47;;
5787;SDS011;2920;48.158;12.254;2023-06-10T13:54:28;4.05;;;3.47;;
5787;SDS011;2920;48.158;12.254;2023-06-10T13:56:54;4.13;;;3.72;;
5787;SDS011;2920;48.158;12.254;2023-06-10T13:59:19;4.80;;;3.50;;
5787;SDS011;2920;48.158;12.254;2023-06-10T14:01:45;3.60;;;3.30;;
5787;SDS011;2920;48.158;12.254;2023-06-10T14:04:11;4.95;;;3.35;;
5787;SDS011;2920;48.158;12.254;2023-06-10T14:06:36;3.58;;;3.22;;
5787;SDS011;2920;48.158;12.254;2023-06-10T14:09:02;10.45;;;3.22;;
5787;SDS011;2920;48.158;12.254;2023-06-10T14:11:27;4.22;;;3.80;;
5787;SDS011;2920;48.158;12.254;2023-06-10T14:13:52;9.40;;;4.40;;
5787;SDS011;2920;48.158;12.254;2023-06-10T14:16:18;4.80;;;3.80;;
5787;SDS011;2920;48.158;12.254;2023-06-10T14:18:43;4.72;;;4.22;;
5787;SDS011;2920;48.158;12.254;2023-06-10T14:21:08;4.63;;;4.13;;
5787;SDS011;2920;48.158;12.254;2023-06-10T14:23:34;4.78;;;3.92;;
5787;SDS011;2920;48.158;12.254;2023-06-10T14:25:59;5.88;;;3.60;;
5787;SDS011;2920;48.158;12.254;2023-06-10T14:28:25;4.60;;;4.20;;
5787;SDS011;2920;48.158;12.254;2023-06-10T14:30:52;9.05;;;4.50;;
5787;SDS011;2920;48.158;12.254;2023-06-10T14:33:18;4.20;;;3.80;;
5787;SDS011;2920;48.158;12.254;2023-06-10T14:35:43;7.40;;;4.20;;
5787;SDS011;2920;48.158;12.254;2023-06-10T14:38:08;4.40;;;3.83;;
5787;SDS011;2920;48.158;12.254;2023-06-10T14:40:34;4.55;;;4.15;;
5787;SDS011;2920;48.158;12.254;2023-06-10T14:42:59;5.15;;;4.15;;
5787;SDS011;2920;48.158;12.254;2023-06-10T14:45:26;4.95;;;3.80;;
5787;SDS011;2920;48.158;12.254;2023-06-10T14:47:51;6.00;;;3.97;;
5787;SDS011;2920;48.158;12.254;2023-06-10T14:50:17;4.68;;;4.25;;
5787;SDS011;2920;48.158;12.254;2023-06-10T14:52:42;5.97;;;3.53;;
5787;SDS011;2920;48.158;12.254;2023-06-10T14:55:07;4.78;;;4.28;;
5787;SDS011;2920;48.158;12.254;2023-06-10T14:57:33;5.22;;;4.10;;
5787;SDS011;2920;48.158;12.254;2023-06-10T14:59:58;5.97;;;3.83;;
5787;SDS011;2920;48.158;12.254;2023-06-10T15:02:23;5.70;;;3.97;;
5787;SDS011;2920;48.158;12.254;2023-06-10T15:04:49;6.68;;;3.38;;
5787;SDS011;2920;48.158;12.254;2023-06-10T15:07:14;4.05;;;3.45;;
5787;SDS011;2920;48.158;12.254;2023-06-10T15:09:40;3.67;;;3.28;;
5787;SDS011;2920;48.158;12.254;2023-06-10T15:12:06;4.20;;;3.47;;